Time;durP1;ratioP1;P1;durP2;ratioP2;P2;SDS_P1;SDS_P2;PMS_P1;PMS_P2;Temp;Humidity;BMP_temperature;BMP_pressure;BME280_temperature;BME280_humidity;BME280_pressure;Samples;Min_cycle;Max_cycle;Signal;HPM_P1;HPM_P2
2023/02/16 10:20:49;;;;;;;;;;;;;;;10.87;64.06;101133.59;5018306;27;3120060;-73
2023/02/16 10:23:30;;;;;;;;;;;;;;;10.97;63.37;101124.69;5128836;28;1292;-73
2023/02/16 10:26:04;;;;;;;;;;;;;;;10.80;64.81;101126.00;5130101;27;802;-75
2023/02/16 10:28:45;;;;;;;;;;;;;;;10.94;62.08;101117.09;5129490;27;1973;-73
2023/02/16 10:31:19;;;;;;;;;;;;;;;10.93;61.75;101121.06;5129738;27;878;-73
2023/02/16 10:36:57;;;;;;;;;;;;;;;11.08;60.67;101106.25;5046471;28;1091;-76
2023/02/16 10:42:40;;;;;;;;;;;;;;;11.33;59.20;101103.00;5101071;27;1043;-75
2023/02/16 10:45:23;;;;;;;;;;;;;;;11.41;57.62;101101.91;5129783;27;816;-74
2023/02/16 10:47:50;;;;;;;;;;;;;;;11.70;55.95;101091.19;5129427;27;815;-75
2023/02/16 10:50:20;;;;;;;;;;;;;;;11.74;56.34;101092.81;5128331;28;839;-75
2023/02/16 10:52:52;;;;;;;;;;;;;;;11.69;56.34;101092.34;5129569;27;855;-75
2023/02/16 10:55:20;;;;;;;;;;;;;;;12.02;55.25;101089.56;5128211;28;1249;-76
2023/02/16 10:57:56;;;;;;;;;;;;;;;12.25;53.36;101088.59;5129378;27;839;-75
2023/02/16 11:00:49;;;;;;;;;;;;;;;12.15;54.29;101078.22;5128980;27;819;-75
2023/02/16 11:03:16;;;;;;;;;;;;;;;12.07;54.82;101084.88;5097171;27;1189;-76
2023/02/16 11:05:42;;;;;;;;;;;;;;;12.25;53.42;101074.75;5127507;28;1332;-74
2023/02/16 11:08:11;;;;;;;;;;;;;;;12.03;52.50;101073.75;5127432;28;1059;-75
2023/02/16 11:10:40;;;;;;;;;;;;;;;12.10;53.05;101073.00;5127880;28;871;-75
2023/02/16 11:13:16;;;;;;;;;;;;;;;12.41;51.91;101075.25;5128813;27;779;-74
2023/02/16 11:24:33;;;;;;;;;;;;;;;12.46;48.86;101054.72;5463184;22;1757;-77
2023/02/16 11:27:05;;;;;;;;;;;;;;;12.53;48.44;101053.97;4978081;28;1087;-76
2023/02/16 11:29:32;;;;;;;;;;;;;;;12.60;47.92;101049.25;4995973;28;899;-78
2023/02/16 11:40:20;;;;;;;;;;;;;;;13.28;43.67;101043.28;5450694;23;1791;-77
2023/02/16 11:42:49;;;;;;;;;;;;;;;13.25;43.25;101032.97;4977643;28;1052;-78
2023/02/16 11:45:29;;;;;;;;;;;;;;;13.55;42.30;101031.88;4977738;28;1135;-78
2023/02/16 12:41:55;;;;;;;;;;;;;;;15.05;30.64;100969.78;5185272;23;1676;-77
2023/02/16 13:53:09;;;;;;;;;;;;;;;14.34;32.14;100921.50;6070659;22;1719;-76
2023/02/16 13:55:37;;;;;;;;;;;;;;;14.18;32.32;100924.72;4959076;28;1087;-79
2023/02/16 14:11:58;;;;;;;;;;;;;;;13.89;31.70;100919.19;5012631;28;1354;-79
2023/02/16 14:28:42;;;;;;;;;;;;;;;13.27;32.91;100909.22;5313947;22;1704;-76
2023/02/16 14:31:18;;;;;;;;;;;;;;;13.08;32.93;100910.38;4996098;28;1415;-77
2023/02/16 14:33:53;;;;;;;;;;;;;;;12.81;33.59;100907.09;4995517;28;1064;-74
2023/02/16 14:42:24;;;;;;;;;;;;;;;12.20;34.26;100911.56;5013154;28;678;-75
2023/02/16 14:45:10;;;;;;;;;;;;;;;12.14;34.25;100907.56;4972094;28;1448;-76
2023/02/16 14:47:55;;;;;;;;;;;;;;;;;;;;;
2023/02/16 14:53:37;;;;;;;;;;;;;;;11.95;35.45;100903.06;4971573;28;998;-78
2023/02/16 14:56:39;;;;;;;;;;;;;;;11.63;36.11;100903.63;4956921;28;1290;-76
2023/02/16 14:59:26;;;;;;;;;;;;;;;11.28;36.66;100904.06;4974550;28;1906;-78
2023/02/16 15:03:18;;;;;;;;;;;;;;;11.17;36.94;100896.47;4974891;28;805;-78
2023/02/16 15:12:20;;;;;;;;;;;;;;;10.29;38.85;100897.78;4993876;28;1216;-76
2023/02/16 15:14:26;;;;;;;;;;;;;;;9.97;39.60;100897.31;4928935;29;1562;-77
2023/02/16 15:16:54;;;;;;;;;;;;;;;9.81;40.13;100894.69;4920127;29;1215;-76
2023/02/16 15:19:31;;;;;;;;;;;;;;;9.63;39.78;100894.41;4919578;29;1946;-76
2023/02/16 15:22:27;;;;;;;;;;;;;;;9.44;40.44;100898.03;4935403;29;991;-75
2023/02/16 15:25:01;;;;;;;;;;;;;;;9.22;41.26;100898.81;4935180;29;1265;-75
2023/02/16 15:27:28;;;;;;;;;;;;;;;9.06;41.65;100899.72;4934926;29;1336;-75
2023/02/16 15:30:16;;;;;;;;;;;;;;;8.89;42.15;100898.22;4947240;28;1026;-75
2023/02/16 15:32:48;;;;;;;;;;;;;;;8.68;42.18;100906.06;4924133;29;1172;-75
2023/02/16 15:35:22;;;;;;;;;;;;;;;8.45;42.94;100901.28;4938414;29;2187;-75
2023/02/16 15:37:57;;;;;;;;;;;;;;;8.21;43.33;100902.28;4938126;29;1002;-76
2023/02/16 15:40:25;;;;;;;;;;;;;;;7.95;43.53;100909.16;4954344;29;1978;-75
2023/02/16 15:42:53;;;;;;;;;;;;;;;7.78;43.73;100895.78;4954449;29;965;-75
2023/02/16 15:45:28;;;;;;;;;;;;;;;7.61;44.69;100905.19;4954254;29;861;-75
2023/02/16 15:48:14;;;;;;;;;;;;;;;7.57;45.09;100909.81;4954031;29;800;-75
2023/02/16 15:50:42;;;;;;;;;;;;;;;7.43;45.33;100906.72;5010673;28;1317;-75
2023/02/16 15:53:13;;;;;;;;;;;;;;;7.33;46.37;100911.56;5014089;28;978;-74
2023/02/16 15:55:44;;;;;;;;;;;;;;;7.13;47.12;100913.44;5014242;28;844;-75
2023/02/16 15:58:23;;;;;;;;;;;;;;;;;;;;;
2023/02/16 16:01:00;;;;;;;;;;;;;;;6.68;48.34;100908.25;4992723;28;1240;-76
2023/02/16 16:03:27;;;;;;;;;;;;;;;6.51;48.86;100912.09;4996473;28;1205;-75
2023/02/16 16:06:22;;;;;;;;;;;;;;;6.24;49.76;100917.16;5012553;28;1227;-76
2023/02/16 16:08:48;;;;;;;;;;;;;;;5.92;50.91;100918.88;5014041;28;820;-76
2023/02/16 16:23:13;;;;;;;;;;;;;;;4.57;56.58;100913.88;5013802;28;642;-76
2023/02/16 16:25:44;;;;;;;;;;;;;;;4.40;57.89;100919.50;5013489;28;876;-75
2023/02/16 16:28:13;;;;;;;;;;;;;;;4.19;58.27;100911.28;4995835;28;1272;-74
2023/02/16 16:30:44;;;;;;;;;;;;;;;4.02;59.12;100907.50;5013894;28;876;-75
